createdAt,value
2022-12-03T00:01:23.433Z,101712.49
2022-12-03T00:03:51.403Z,101716.23
2022-12-03T00:06:19.373Z,101714.71
2022-12-03T00:08:47.222Z,101710.54
2022-12-03T00:11:14.998Z,101711.42
2022-12-03T00:13:42.726Z,101708.27
2022-12-03T00:16:10.531Z,101708.80
2022-12-03T00:18:38.498Z,101701.70
2022-12-03T00:21:06.508Z,101700.13
2022-12-03T00:23:40.186Z,101700.33
2022-12-03T00:26:09.985Z,101699.80
2022-12-03T00:28:37.741Z,101699.23
2022-12-03T00:31:05.743Z,101698.63
2022-12-03T00:33:33.496Z,101695.63
2022-12-03T00:36:01.196Z,101692.85
2022-12-03T00:38:29.100Z,101695.83
2022-12-03T00:40:56.824Z,101694.31
2022-12-03T00:43:25.172Z,101694.48
2022-12-03T00:45:53.003Z,101697.11
2022-12-03T00:48:20.870Z,101695.17
2022-12-03T00:50:48.622Z,101695.23
2022-12-03T00:53:16.478Z,101691.95
2022-12-03T00:55:44.178Z,101691.16
2022-12-03T00:58:11.943Z,101689.64
2022-12-03T01:00:39.612Z,101686.66
2022-12-03T01:03:07.458Z,101686.96
2022-12-03T01:05:35.236Z,101689.66
2022-12-03T01:08:03.107Z,101685.54
2022-12-03T01:10:31.047Z,101685.00
2022-12-03T01:12:58.851Z,101686.73
2022-12-03T01:15:26.642Z,101684.65
2022-12-03T01:17:54.485Z,101681.34
2022-12-03T01:20:22.617Z,101680.34
2022-12-03T01:22:50.682Z,101683.59
2022-12-03T01:25:18.450Z,101684.63
2022-12-03T01:27:46.333Z,101681.10
2022-12-03T01:30:14.807Z,101683.18
2022-12-03T01:32:42.653Z,101684.11
2022-12-03T01:35:10.582Z,101686.14
2022-12-03T01:37:38.303Z,101684.23
2022-12-03T01:40:09.655Z,101683.15
2022-12-03T01:42:40.856Z,101682.29
2022-12-03T01:45:21.307Z,101682.88
2022-12-03T01:47:49.311Z,101679.90
2022-12-03T01:50:30.481Z,101679.77
2022-12-03T01:53:01.828Z,101681.31
2022-12-03T01:55:29.915Z,101683.70
2022-12-03T01:58:01.051Z,101685.16
2022-12-03T02:00:29.966Z,101683.71
2022-12-03T02:03:04.254Z,101684.13
2022-12-03T02:05:33.889Z,101681.80
2022-12-03T02:08:02.221Z,101684.33
2022-12-03T02:10:36.122Z,101681.65
2022-12-03T02:13:09.052Z,101686.38
2022-12-03T02:15:39.573Z,101686.96
2022-12-03T02:18:08.931Z,101679.45
2022-12-03T02:20:51.740Z,101677.60
2022-12-03T02:23:40.827Z,101677.85
2022-12-03T02:26:08.898Z,101675.70
2022-12-03T02:28:38.210Z,101678.52
2022-12-03T02:31:06.553Z,101676.14
2022-12-03T02:33:36.391Z,101673.05
2022-12-03T02:36:04.884Z,101677.34
2022-12-03T02:38:35.180Z,101680.19
2022-12-03T02:41:07.944Z,101682.02
2022-12-03T02:43:35.978Z,101683.20
2022-12-03T02:46:05.045Z,101679.79
2022-12-03T02:48:36.209Z,101680.83
2022-12-03T02:51:08.777Z,101679.51
2022-12-03T02:53:44.666Z,101680.73
2022-12-03T02:56:16.685Z,101679.36
2022-12-03T02:58:47.300Z,101678.46
2022-12-03T03:01:15.915Z,101678.80
2022-12-03T03:03:45.868Z,101680.02
2022-12-03T03:06:16.115Z,101678.27
2022-12-03T03:08:44.214Z,101681.33
2022-12-03T03:11:12.229Z,101676.19
2022-12-03T03:13:40.476Z,101673.03
2022-12-03T03:16:09.271Z,101670.64
2022-12-03T03:18:37.445Z,101668.77
2022-12-03T03:21:06.380Z,101664.91
2022-12-03T03:23:34.874Z,101664.29
2022-12-03T03:26:08.428Z,101665.31
2022-12-03T03:28:39.343Z,101664.44
2022-12-03T03:31:09.093Z,101662.42
2022-12-03T03:33:39.380Z,101660.52
2022-12-03T03:36:07.783Z,101657.98
2022-12-03T03:38:37.261Z,101657.67
2022-12-03T03:41:06.440Z,101655.67
2022-12-03T03:43:35.860Z,101653.39
2022-12-03T03:46:05.556Z,101654.54
2022-12-03T03:48:35.542Z,101657.27
2022-12-03T03:51:09.092Z,101653.39
2022-12-03T03:53:40.376Z,101650.23
2022-12-03T03:56:09.758Z,101651.73
2022-12-03T03:58:38.216Z,101650.70
2022-12-03T04:01:06.791Z,101651.96
2022-12-03T04:03:35.386Z,101653.68
2022-12-03T04:06:03.227Z,101652.47
2022-12-03T04:08:31.256Z,101652.14
2022-12-03T04:11:17.349Z,101653.34
2022-12-03T04:13:45.066Z,101654.37
2022-12-03T04:16:12.872Z,101651.82
2022-12-03T04:18:43.234Z,101652.67
2022-12-03T04:21:33.289Z,101650.86
2022-12-03T04:24:01.677Z,101654.88
2022-12-03T04:26:48.041Z,101648.39
2022-12-03T04:29:16.092Z,101649.85
2022-12-03T04:32:02.184Z,101646.55
2022-12-03T04:34:48.402Z,101646.45
2022-12-03T04:37:16.379Z,101646.56
2022-12-03T04:39:44.320Z,101645.84
2022-12-03T04:42:12.021Z,101648.39
2022-12-03T04:44:39.899Z,101649.40
2022-12-03T04:47:16.198Z,101646.18
2022-12-03T04:49:46.723Z,101640.80
2022-12-03T04:52:16.082Z,101641.20
2022-12-03T04:54:44.157Z,101638.84
2022-12-03T04:57:12.658Z,101637.34
2022-12-03T04:59:40.431Z,101635.79
2022-12-03T05:02:09.208Z,101635.05
2022-12-03T05:04:37.491Z,101634.25
2022-12-03T05:07:05.241Z,101638.48
2022-12-03T05:09:33.086Z,101636.56
2022-12-03T05:12:00.934Z,101634.03
2022-12-03T05:14:28.921Z,101630.09
2022-12-03T05:16:56.755Z,101627.85
2022-12-03T05:19:44.649Z,101632.33
2022-12-03T05:22:12.368Z,101626.87
2022-12-03T05:24:40.145Z,101626.42
2022-12-03T05:27:07.932Z,101627.86
2022-12-03T05:29:35.673Z,101625.71
2022-12-03T05:32:04.537Z,101621.21
2022-12-03T05:34:32.202Z,101616.25
2022-12-03T05:36:59.984Z,101620.11
2022-12-03T05:39:27.684Z,101621.89
2022-12-03T05:42:14.066Z,101623.50
2022-12-03T05:44:41.928Z,101621.65
2022-12-03T05:47:09.639Z,101619.82
2022-12-03T05:49:37.420Z,101623.27
2022-12-03T05:52:05.268Z,101625.42
2022-12-03T05:54:32.972Z,101618.19
2022-12-03T05:57:00.833Z,101614.79
2022-12-03T05:59:28.568Z,101608.52
2022-12-03T06:01:56.408Z,101604.09
2022-12-03T06:04:24.156Z,101600.62
2022-12-03T06:06:51.881Z,101598.48
2022-12-03T06:09:19.595Z,101604.50
2022-12-03T06:11:47.306Z,101607.19
2022-12-03T06:14:15.070Z,101611.77
2022-12-03T06:16:42.906Z,101621.26
2022-12-03T06:19:10.740Z,101625.88
2022-12-03T06:21:38.560Z,101630.80
2022-12-03T06:24:06.411Z,101636.02
2022-12-03T06:26:34.192Z,101638.67
2022-12-03T06:29:01.957Z,101639.96
2022-12-03T06:31:29.912Z,101636.77
2022-12-03T06:33:57.697Z,101637.81
2022-12-03T06:36:27.672Z,101639.12
2022-12-03T06:38:55.357Z,101641.11
2022-12-03T06:41:23.229Z,101644.67
2022-12-03T06:43:50.972Z,101642.77
2022-12-03T06:46:18.805Z,101643.22
2022-12-03T06:48:46.721Z,101647.63
2022-12-03T06:51:14.461Z,101648.46
2022-12-03T06:53:42.249Z,101651.44
2022-12-03T06:56:10.133Z,101648.27
2022-12-03T06:58:38.181Z,101651.34
2022-12-03T07:01:06.116Z,101647.44
2022-12-03T07:03:33.857Z,101642.64
2022-12-03T07:06:01.791Z,101648.87
2022-12-03T07:08:29.564Z,101641.88
2022-12-03T07:10:57.306Z,101636.14
2022-12-03T07:13:24.988Z,101637.94
2022-12-03T07:15:52.748Z,101631.77
2022-12-03T07:18:20.493Z,101632.24
2022-12-03T07:20:49.477Z,101631.13
2022-12-03T07:23:17.227Z,101631.81
2022-12-03T07:25:45.013Z,101629.05
2022-12-03T07:28:12.780Z,101626.50
2022-12-03T07:30:40.634Z,101626.33
2022-12-03T07:33:08.305Z,101625.38
2022-12-03T07:35:36.020Z,101624.63
2022-12-03T07:38:03.711Z,101624.82
2022-12-03T07:40:31.410Z,101629.84
2022-12-03T07:42:59.151Z,101632.23
2022-12-03T07:45:26.868Z,101634.03
2022-12-03T07:47:54.579Z,101630.40
2022-12-03T07:50:22.396Z,101626.25
2022-12-03T07:52:50.120Z,101622.55
2022-12-03T07:55:17.968Z,101619.36
2022-12-03T07:57:45.704Z,101620.71
2022-12-03T08:00:14.755Z,101619.70
2022-12-03T08:02:42.572Z,101622.68
2022-12-03T08:05:11.682Z,101624.59
2022-12-03T08:07:39.811Z,101625.16
2022-12-03T08:10:08.254Z,101623.45
2022-12-03T08:12:41.632Z,101623.88
2022-12-03T08:15:18.752Z,101628.48
2022-12-03T08:17:53.261Z,101625.70
2022-12-03T08:20:24.169Z,101627.83
2022-12-03T08:22:53.728Z,101630.13
2022-12-03T08:25:24.615Z,101629.50
2022-12-03T08:27:56.983Z,101625.78
2022-12-03T08:30:24.746Z,101628.97
2022-12-03T08:32:52.715Z,101631.38
2022-12-03T08:35:27.050Z,101620.88
2022-12-03T08:38:01.549Z,101619.66
2022-12-03T08:40:44.264Z,101623.51
2022-12-03T08:43:25.337Z,101627.17
2022-12-03T08:45:55.113Z,101628.91
2022-12-03T08:48:40.704Z,101624.91
2022-12-03T08:51:27.670Z,101619.33
2022-12-03T08:54:02.067Z,101622.19
2022-12-03T08:56:33.669Z,101620.16
2022-12-03T08:59:14.047Z,101618.11
2022-12-03T09:01:43.978Z,101618.61
2022-12-03T09:04:22.911Z,101615.77
2022-12-03T09:06:51.773Z,101604.98
2022-12-03T09:09:20.570Z,101604.65
2022-12-03T09:11:48.453Z,101600.11
2022-12-03T09:14:18.847Z,101599.06
2022-12-03T09:16:48.040Z,101598.98
2022-12-03T09:19:16.357Z,101598.55
2022-12-03T09:21:44.746Z,101596.98
2022-12-03T09:24:12.598Z,101594.08
2022-12-03T09:26:40.832Z,101597.39
2022-12-03T09:29:12.155Z,101598.64
2022-12-03T09:31:40.866Z,101600.52
2022-12-03T09:34:08.741Z,101593.77
2022-12-03T09:36:36.504Z,101587.48
2022-12-03T09:39:04.455Z,101584.89
2022-12-03T09:41:32.349Z,101585.05
2022-12-03T09:44:05.611Z,101590.02
2022-12-03T09:46:37.771Z,101590.27
2022-12-03T09:49:10.852Z,101591.92
2022-12-03T09:51:43.999Z,101588.23
2022-12-03T09:54:22.793Z,101588.55
2022-12-03T09:56:51.273Z,101589.27
2022-12-03T09:59:19.272Z,101587.10
2022-12-03T10:01:47.340Z,101584.54
2022-12-03T10:04:15.452Z,101589.46
2022-12-03T10:06:46.013Z,101591.48
2022-12-03T10:09:17.646Z,101591.70
2022-12-03T10:11:45.403Z,101583.52
2022-12-03T10:14:15.400Z,101584.80
2022-12-03T10:16:43.826Z,101583.10
2022-12-03T10:19:24.311Z,101582.09
2022-12-03T10:21:52.097Z,101575.45
2022-12-03T10:24:29.157Z,101573.67
2022-12-03T10:27:21.724Z,101572.30
2022-12-03T10:30:02.789Z,101570.58
2022-12-03T10:32:43.539Z,101573.80
2022-12-03T10:35:19.155Z,101571.86
2022-12-03T10:37:56.679Z,101576.59
2022-12-03T10:40:30.590Z,101572.27
2022-12-03T10:43:21.601Z,101572.63
2022-12-03T10:45:50.571Z,101565.88
2022-12-03T10:48:21.482Z,101562.41
2022-12-03T10:50:54.721Z,101555.61
2022-12-03T10:53:31.618Z,101556.23
2022-12-03T10:56:03.149Z,101551.83
2022-12-03T10:58:35.621Z,101550.51
2022-12-03T11:01:13.463Z,101548.18
2022-12-03T11:03:41.569Z,101547.84
2022-12-03T11:06:15.244Z,101549.98
2022-12-03T11:08:56.338Z,101549.73
2022-12-03T11:11:28.917Z,101548.77
2022-12-03T11:14:02.238Z,101549.15
2022-12-03T11:16:53.021Z,101545.98
2022-12-03T11:19:43.920Z,101548.38
2022-12-03T11:22:18.586Z,101543.42
2022-12-03T11:24:47.272Z,101540.89
2022-12-03T11:27:19.930Z,101538.47
2022-12-03T11:29:50.851Z,101532.38
2022-12-03T11:32:37.811Z,101530.27
2022-12-03T11:35:24.648Z,101529.34
2022-12-03T11:37:54.173Z,101520.23
2022-12-03T11:40:23.205Z,101517.94
2022-12-03T11:42:53.695Z,101517.48
2022-12-03T11:45:30.610Z,101521.38
2022-12-03T11:48:00.273Z,101523.91
2022-12-03T11:50:39.419Z,101525.08
2022-12-03T11:53:26.825Z,101526.95
2022-12-03T11:56:11.212Z,101530.59
2022-12-03T11:58:44.179Z,101526.20
2022-12-03T12:01:15.444Z,101525.09
2022-12-03T12:03:49.597Z,101525.23
2022-12-03T12:06:20.831Z,101521.98
2022-12-03T12:08:52.267Z,101525.07
2022-12-03T12:11:33.582Z,101528.61
2022-12-03T12:14:12.268Z,101527.63
2022-12-03T12:16:53.502Z,101528.71
2022-12-03T12:19:43.679Z,101527.45
2022-12-03T12:22:13.683Z,101527.58
2022-12-03T12:24:47.928Z,101531.45
2022-12-03T12:27:29.596Z,101533.73
2022-12-03T12:30:01.647Z,101531.88
2022-12-03T12:32:33.392Z,101531.33
2022-12-03T12:35:21.552Z,101537.02
2022-12-03T12:37:58.949Z,101532.52
2022-12-03T12:40:30.619Z,101531.74
2022-12-03T12:43:04.141Z,101531.80
2022-12-03T12:45:42.076Z,101531.09
2022-12-03T12:48:10.384Z,101527.51
2022-12-03T12:50:40.692Z,101527.48
2022-12-03T12:53:13.464Z,101525.67
2022-12-03T12:55:41.961Z,101523.19
2022-12-03T12:58:19.030Z,101517.61
2022-12-03T13:00:54.307Z,101517.85
2022-12-03T13:03:28.959Z,101515.08
2022-12-03T13:05:57.938Z,101514.44
2022-12-03T13:08:29.203Z,101511.96
2022-12-03T13:10:59.882Z,101511.82
2022-12-03T13:13:44.272Z,101518.82
2022-12-03T13:16:23.182Z,101517.24
2022-12-03T13:18:55.694Z,101518.77
2022-12-03T13:21:44.356Z,101518.98
2022-12-03T13:24:38.339Z,101521.77
2022-12-03T13:27:18.514Z,101524.20
2022-12-03T13:30:07.379Z,101520.88
2022-12-03T13:32:41.702Z,101518.14
2022-12-03T13:35:10.555Z,101518.03
2022-12-03T13:37:39.534Z,101517.27
2022-12-03T13:40:23.363Z,101517.80
2022-12-03T13:42:53.906Z,101521.09
2022-12-03T13:45:30.014Z,101522.80
2022-12-03T13:48:14.499Z,101520.75
2022-12-03T13:50:50.611Z,101523.58
2022-12-03T13:53:28.449Z,101527.12
2022-12-03T13:56:04.278Z,101531.10
2022-12-03T13:58:33.009Z,101533.23
2022-12-03T14:01:02.439Z,101532.83
2022-12-03T14:03:31.419Z,101533.68
2022-12-03T14:05:59.745Z,101535.46
2022-12-03T14:08:29.620Z,101533.60
2022-12-03T14:11:00.906Z,101533.72
2022-12-03T14:13:29.544Z,101534.51
2022-12-03T14:15:58.754Z,101537.48
2022-12-03T14:18:27.667Z,101540.20
2022-12-03T14:20:56.832Z,101538.97
2022-12-03T14:23:25.513Z,101535.59
2022-12-03T14:25:54.008Z,101538.19
2022-12-03T14:28:21.933Z,101534.95
2022-12-03T14:30:49.705Z,101530.07
2022-12-03T14:33:17.649Z,101527.39
2022-12-03T14:35:45.340Z,101530.35
2022-12-03T14:38:13.011Z,101528.05
2022-12-03T14:40:40.732Z,101525.98
2022-12-03T14:43:08.922Z,101527.00
2022-12-03T14:45:36.728Z,101524.33
2022-12-03T14:48:04.597Z,101527.45
2022-12-03T14:50:32.317Z,101533.92
2022-12-03T14:53:00.139Z,101536.39
2022-12-03T14:55:27.877Z,101540.75
2022-12-03T14:57:55.623Z,101539.94
2022-12-03T15:00:23.371Z,101541.11
2022-12-03T15:02:51.101Z,101545.45
2022-12-03T15:05:28.017Z,101544.84
2022-12-03T15:07:56.608Z,101538.98
2022-12-03T15:10:24.404Z,101538.30
2022-12-03T15:12:52.221Z,101545.40
2022-12-03T15:15:20.084Z,101549.23
2022-12-03T15:17:47.848Z,101549.06
2022-12-03T15:20:15.773Z,101543.20
2022-12-03T15:22:43.579Z,101546.29
2022-12-03T15:25:11.489Z,101553.64
2022-12-03T15:27:39.215Z,101557.27
2022-12-03T15:30:08.118Z,101560.29
2022-12-03T15:32:35.873Z,101559.51
2022-12-03T15:35:03.740Z,101565.37
2022-12-03T15:37:31.476Z,101569.55
2022-12-03T15:39:59.504Z,101572.56
2022-12-03T15:42:29.766Z,101564.55
2022-12-03T15:44:57.549Z,101563.59
2022-12-03T15:47:25.664Z,101564.11
2022-12-03T15:49:53.601Z,101579.83
2022-12-03T15:52:21.652Z,101582.45
2022-12-03T15:54:49.816Z,101574.42
2022-12-03T15:57:17.796Z,101566.92
2022-12-03T15:59:45.497Z,101573.05
2022-12-03T16:02:13.459Z,101577.05
2022-12-03T16:04:41.595Z,101576.93
2022-12-03T16:07:09.584Z,101583.96
2022-12-03T16:09:37.529Z,101581.63
2022-12-03T16:12:05.647Z,101579.14
2022-12-03T16:14:33.368Z,101583.69
2022-12-03T16:17:01.180Z,101583.05
2022-12-03T16:19:29.014Z,101591.73
2022-12-03T16:21:56.774Z,101591.17
2022-12-03T16:24:24.511Z,101587.11
2022-12-03T16:26:52.283Z,101586.95
2022-12-03T16:29:20.058Z,101592.02
2022-12-03T16:31:47.814Z,101592.35
2022-12-03T16:34:15.775Z,101591.62
2022-12-03T16:36:45.698Z,101589.02
2022-12-03T16:39:13.564Z,101585.23
2022-12-03T16:41:41.257Z,101582.63
2022-12-03T16:44:19.833Z,101580.38
2022-12-03T16:46:47.648Z,101576.26
2022-12-03T16:49:15.567Z,101576.42
2022-12-03T16:51:43.283Z,101578.56
2022-12-03T16:54:11.793Z,101574.93
2022-12-03T16:56:39.572Z,101575.66
2022-12-03T16:59:07.268Z,101571.47
2022-12-03T17:01:35.173Z,101565.48
2022-12-03T17:04:02.973Z,101563.70
2022-12-03T17:06:30.827Z,101559.67
2022-12-03T17:08:58.526Z,101559.17
2022-12-03T17:11:26.312Z,101561.09
2022-12-03T17:13:54.025Z,101553.92
2022-12-03T17:16:21.933Z,101546.76
2022-12-03T17:18:49.745Z,101548.74
2022-12-03T17:21:17.715Z,101548.71
2022-12-03T17:23:48.971Z,101542.79
2022-12-03T17:26:18.235Z,101539.24
2022-12-03T17:28:46.215Z,101535.06
2022-12-03T17:31:14.066Z,101523.12
2022-12-03T17:33:41.877Z,101513.57
2022-12-03T17:36:10.395Z,101516.25
2022-12-03T17:38:39.386Z,101517.99
2022-12-03T17:41:07.807Z,101521.65
2022-12-03T17:43:36.113Z,101527.73
2022-12-03T17:46:05.349Z,101523.20
2022-12-03T17:48:33.394Z,101511.77
2022-12-03T17:51:01.739Z,101509.55
2022-12-03T17:53:29.505Z,101515.63
2022-12-03T17:55:57.259Z,101508.76
2022-12-03T17:58:26.865Z,101517.17
2022-12-03T18:00:58.710Z,101517.91
2022-12-03T18:03:30.975Z,101524.04
2022-12-03T18:05:58.739Z,101533.80
2022-12-03T18:08:26.452Z,101543.42
2022-12-03T18:10:54.699Z,101542.97
2022-12-03T18:13:22.588Z,101539.86
2022-12-03T18:15:50.440Z,101539.00
2022-12-03T18:18:18.285Z,101550.40
2022-12-03T18:20:46.252Z,101564.76
2022-12-03T18:23:14.015Z,101561.53
2022-12-03T18:25:42.308Z,101555.98
2022-12-03T18:28:10.003Z,101556.98
2022-12-03T18:30:37.767Z,101556.05
2022-12-03T18:33:05.581Z,101559.48
2022-12-03T18:35:33.547Z,101559.73
2022-12-03T18:38:01.720Z,101557.93
2022-12-03T18:40:29.488Z,101558.20
2022-12-03T18:42:57.474Z,101554.60
2022-12-03T18:45:25.201Z,101550.30
2022-12-03T18:47:52.930Z,101541.50
2022-12-03T18:50:20.947Z,101538.62
2022-12-03T18:52:48.614Z,101536.39
2022-12-03T18:55:21.851Z,101542.36
2022-12-03T18:57:49.591Z,101545.42
2022-12-03T19:00:18.342Z,101541.91
2022-12-03T19:03:02.266Z,101537.84
2022-12-03T19:05:33.331Z,101540.95
2022-12-03T19:08:02.032Z,101543.89
2022-12-03T19:10:29.849Z,101543.48
2022-12-03T19:12:57.850Z,101547.27
2022-12-03T19:15:25.616Z,101550.33
2022-12-03T19:17:53.373Z,101548.73
2022-12-03T19:20:21.223Z,101548.77
2022-12-03T19:22:48.987Z,101550.70
2022-12-03T19:25:16.774Z,101544.73
2022-12-03T19:27:44.476Z,101546.91
2022-12-03T19:30:13.045Z,101554.46
2022-12-03T19:32:40.818Z,101548.17
2022-12-03T19:35:11.190Z,101549.60
2022-12-03T19:37:39.063Z,101549.55
2022-12-03T19:40:10.269Z,101548.13
2022-12-03T19:42:39.841Z,101550.94
2022-12-03T19:45:09.405Z,101544.20
2022-12-03T19:47:37.375Z,101545.66
2022-12-03T19:50:06.051Z,101541.08
2022-12-03T19:52:35.874Z,101542.06
2022-12-03T19:55:04.254Z,101539.17
2022-12-03T19:57:32.023Z,101536.94
2022-12-03T20:00:01.248Z,101535.27
2022-12-03T20:02:29.249Z,101537.75
2022-12-03T20:04:57.259Z,101542.94
2022-12-03T20:07:25.123Z,101543.24
2022-12-03T20:09:53.323Z,101543.86
2022-12-03T20:12:21.574Z,101544.17
2022-12-03T20:14:50.255Z,101550.02
2022-12-03T20:17:18.019Z,101554.84
2022-12-03T20:19:45.727Z,101562.28
2022-12-03T20:22:13.544Z,101565.10
2022-12-03T20:24:41.409Z,101560.45
2022-12-03T20:27:09.143Z,101554.42
2022-12-03T20:29:36.887Z,101551.80
2022-12-03T20:32:07.045Z,101545.33
2022-12-03T20:34:36.062Z,101544.37
2022-12-03T20:37:03.920Z,101545.73
2022-12-03T20:39:31.784Z,101542.20
2022-12-03T20:41:59.554Z,101540.42
2022-12-03T20:44:27.584Z,101541.50
2022-12-03T20:46:56.094Z,101540.75
2022-12-03T20:49:24.197Z,101538.87
2022-12-03T20:51:52.133Z,101540.05
2022-12-03T20:54:19.848Z,101542.41
2022-12-03T20:56:47.904Z,101542.35
2022-12-03T20:59:17.135Z,101545.33
2022-12-03T21:01:45.462Z,101546.86
2022-12-03T21:04:13.795Z,101545.05
2022-12-03T21:06:42.599Z,101545.59
2022-12-03T21:09:12.210Z,101546.98
2022-12-03T21:11:42.669Z,101546.35
2022-12-03T21:14:11.391Z,101551.06
2022-12-03T21:17:07.163Z,101559.15
2022-12-03T21:19:31.116Z,101562.16
2022-12-03T21:21:58.975Z,101564.48
2022-12-03T21:24:26.799Z,101562.80
2022-12-03T21:26:54.608Z,101562.35
2022-12-03T21:29:23.264Z,101565.69
2022-12-03T21:31:51.362Z,101567.50
2022-12-03T21:34:19.333Z,101567.48
2022-12-03T21:36:47.406Z,101566.48
2022-12-03T21:39:15.182Z,101562.59
2022-12-03T21:42:33.270Z,101562.99
2022-12-03T21:44:31.383Z,101559.59
2022-12-03T21:47:09.832Z,101558.02
2022-12-03T21:49:41.607Z,101553.05
2022-12-03T21:52:10.798Z,101548.99
2022-12-03T21:54:38.607Z,101543.29
2022-12-03T21:57:06.707Z,101538.91
2022-12-03T21:59:34.508Z,101538.64
